Amsterdam, Montana
Current Conditions -  °F | °C
As of 12:56 PM on Thursday 29 Jan 2015 (Local Time) from KBZN Reporting Station
Clear Clear  
Wind Chill: 39°   Ceiling: Unl
Heat Index: 39°   Visibility: 10mi
Dew Point: 27°   Wind: 0mph
Humidity: 62%   Direction: NA
Pressure: 30.35"   Gusts: NA
Location:  45.7517°N, 111.347°W
Report Text: KBZN 291956Z 00000KT 10SM CLR 04/M03 A3035 RMK AO2 SLP314 T00391028
Loading
Personal Weather Stations






























Interactive Weather Map New forecast layout! Learn more

10-Day Weather Forecast

Advertisements
Track Severe Weather on mobile